createdAt,value
2018-07-08T00:01:18.087Z,13.32
2018-07-08T00:03:46.763Z,14.03
2018-07-08T00:06:15.188Z,12.53
2018-07-08T00:08:43.699Z,13.57
2018-07-08T00:11:12.118Z,14.77
2018-07-08T00:13:40.612Z,15.40
2018-07-08T00:16:09.065Z,15.10
2018-07-08T00:18:37.582Z,11.83
2018-07-08T00:21:06.111Z,12.23
2018-07-08T00:23:34.731Z,13.70
2018-07-08T00:26:03.241Z,12.83
2018-07-08T00:28:31.724Z,17.57
2018-07-08T00:31:00.389Z,16.77
2018-07-08T00:33:29.061Z,11.57
2018-07-08T00:35:57.554Z,16.70
2018-07-08T00:38:25.972Z,15.20
2018-07-08T00:40:54.427Z,15.18
2018-07-08T00:43:22.872Z,14.67
2018-07-08T00:45:51.564Z,16.00
2018-07-08T00:48:20.740Z,12.17
2018-07-08T00:50:49.147Z,12.63
2018-07-08T00:53:17.611Z,12.20
2018-07-08T00:55:46.184Z,17.67
2018-07-08T00:58:14.602Z,18.40
2018-07-08T01:00:43.234Z,11.37
2018-07-08T01:03:11.690Z,13.28
2018-07-08T01:05:40.151Z,19.23
2018-07-08T01:08:08.762Z,10.07
2018-07-08T01:10:37.267Z,12.83
2018-07-08T01:13:05.805Z,11.03
2018-07-08T01:15:34.254Z,14.75
2018-07-08T01:18:02.712Z,11.45
2018-07-08T01:20:31.260Z,11.13
2018-07-08T01:22:59.693Z,12.33
2018-07-08T01:25:39.263Z,13.50
2018-07-08T01:28:07.716Z,13.65
2018-07-08T01:30:36.154Z,11.53
2018-07-08T01:33:04.679Z,10.30
2018-07-08T01:35:33.185Z,13.70
2018-07-08T01:38:01.752Z,11.63
2018-07-08T01:40:30.203Z,12.70
2018-07-08T01:42:58.671Z,10.82
2018-07-08T01:45:27.151Z,13.90
2018-07-08T01:47:55.589Z,13.70
2018-07-08T01:50:24.063Z,17.63
2018-07-08T01:52:53.250Z,12.73
2018-07-08T01:55:21.772Z,9.37
2018-07-08T01:57:50.259Z,12.57
2018-07-08T02:00:18.751Z,12.83
2018-07-08T02:02:47.253Z,11.40
2018-07-08T02:05:15.774Z,16.62
2018-07-08T02:07:44.209Z,9.97
2018-07-08T02:10:12.656Z,11.08
2018-07-08T02:12:41.141Z,15.73
2018-07-08T02:15:09.608Z,13.23
2018-07-08T02:17:38.124Z,13.53
2018-07-08T02:20:07.141Z,14.20
2018-07-08T02:22:35.666Z,12.70
2018-07-08T02:25:04.839Z,15.78
2018-07-08T02:27:33.363Z,14.80
2018-07-08T02:30:02.093Z,11.57
2018-07-08T02:32:30.714Z,12.63
2018-07-08T02:34:59.364Z,14.00
2018-07-08T02:37:27.850Z,17.63
2018-07-08T02:39:56.312Z,11.80
2018-07-08T02:42:25.051Z,11.17
2018-07-08T02:44:53.492Z,9.93
2018-07-08T02:47:22.156Z,10.97
2018-07-08T02:49:51.060Z,10.83
2018-07-08T02:52:20.490Z,11.73
2018-07-08T02:54:49.002Z,11.17
2018-07-08T02:57:18.042Z,9.73
2018-07-08T02:59:46.858Z,14.00
2018-07-08T03:02:15.356Z,12.37
2018-07-08T03:04:43.776Z,9.28
2018-07-08T03:07:12.256Z,8.98
2018-07-08T03:09:40.692Z,9.03
2018-07-08T03:12:09.141Z,11.77
2018-07-08T03:14:37.595Z,8.80
2018-07-08T03:17:06.114Z,13.90
2018-07-08T03:19:34.593Z,10.90
2018-07-08T03:22:04.040Z,10.23
2018-07-08T03:27:31.360Z,10.05
2018-07-08T03:29:59.828Z,11.30
2018-07-08T03:32:28.253Z,12.17
2018-07-08T03:34:56.722Z,11.83
2018-07-08T03:37:25.213Z,9.00
2018-07-08T03:39:53.661Z,11.13
2018-07-08T03:42:22.104Z,9.70
2018-07-08T03:44:50.511Z,10.60
2018-07-08T03:47:19.529Z,10.45
2018-07-08T03:49:47.955Z,10.70
2018-07-08T03:52:16.364Z,14.60
2018-07-08T03:54:44.791Z,15.00
2018-07-08T03:57:13.206Z,16.70
2018-07-08T03:59:41.679Z,14.20
2018-07-08T04:02:10.132Z,15.33
2018-07-08T04:04:38.653Z,12.27
2018-07-08T04:07:07.160Z,11.27
2018-07-08T04:09:35.591Z,14.40
2018-07-08T04:12:04.078Z,15.13
2018-07-08T04:14:32.531Z,10.83
2018-07-08T04:17:01.011Z,14.70
2018-07-08T04:19:29.442Z,12.23
2018-07-08T04:21:57.902Z,12.80
2018-07-08T04:24:26.604Z,13.57
2018-07-08T04:26:55.290Z,10.60
2018-07-08T04:29:23.785Z,12.30
2018-07-08T04:31:52.197Z,10.57
2018-07-08T04:34:20.764Z,10.05
2018-07-08T04:36:49.202Z,8.67
2018-07-08T04:39:17.652Z,8.88
2018-07-08T04:41:46.095Z,9.03
2018-07-08T04:44:14.640Z,8.90
2018-07-08T04:46:43.084Z,10.15
2018-07-08T04:49:11.530Z,7.97
2018-07-08T04:51:39.948Z,10.87
2018-07-08T04:54:08.430Z,10.27
2018-07-08T04:56:36.859Z,11.93
2018-07-08T04:59:05.510Z,7.90
2018-07-08T05:01:33.939Z,12.93
2018-07-08T05:04:02.379Z,10.33
2018-07-08T05:06:30.855Z,12.03
2018-07-08T05:08:59.299Z,9.70
2018-07-08T05:11:27.709Z,8.43
2018-07-08T05:13:56.128Z,9.10
2018-07-08T05:16:24.607Z,8.50
2018-07-08T05:18:53.043Z,10.13
2018-07-08T05:21:21.532Z,13.87
2018-07-08T05:23:49.955Z,9.47
2018-07-08T05:26:18.431Z,8.33
2018-07-08T05:28:46.979Z,9.87
2018-07-08T05:31:15.424Z,9.90
2018-07-08T05:33:43.883Z,11.17
2018-07-08T05:36:12.326Z,8.63
2018-07-08T05:38:40.743Z,9.20
2018-07-08T05:41:09.210Z,9.07
2018-07-08T05:43:37.688Z,8.68
2018-07-08T05:46:06.200Z,9.33
2018-07-08T05:48:34.603Z,9.17
2018-07-08T05:51:03.015Z,9.17
2018-07-08T05:53:31.751Z,7.10
2018-07-08T05:56:00.177Z,8.37
2018-07-08T05:58:28.651Z,8.83
2018-07-08T06:00:57.259Z,7.93
2018-07-08T06:03:25.679Z,9.03
2018-07-08T06:05:54.123Z,15.90
2018-07-08T06:08:22.544Z,19.02
2018-07-08T06:10:51.010Z,9.10
2018-07-08T06:13:19.428Z,8.75
2018-07-08T06:15:48.124Z,13.27
2018-07-08T06:18:16.545Z,13.33
2018-07-08T06:20:44.996Z,9.30
2018-07-08T06:23:13.467Z,7.50
2018-07-08T06:25:41.931Z,7.07
2018-07-08T06:28:10.546Z,7.40
2018-07-08T06:30:38.931Z,11.18
2018-07-08T06:33:07.311Z,7.43
2018-07-08T06:35:35.746Z,7.15
2018-07-08T06:38:04.171Z,7.60
2018-07-08T06:40:32.660Z,8.27
2018-07-08T06:43:01.124Z,7.27
2018-07-08T06:45:29.669Z,7.63
2018-07-08T06:47:58.711Z,6.60
2018-07-08T06:50:27.515Z,6.10
2018-07-08T06:52:56.005Z,9.93
2018-07-08T06:55:24.641Z,6.47
2018-07-08T06:57:53.436Z,6.80
2018-07-08T07:00:21.849Z,9.10
2018-07-08T07:02:50.273Z,7.60
2018-07-08T07:05:18.739Z,9.20
2018-07-08T07:07:47.200Z,9.43
2018-07-08T07:10:15.664Z,7.93
2018-07-08T07:12:44.077Z,5.37
2018-07-08T07:15:12.542Z,7.63
2018-07-08T07:17:41.015Z,17.92
2018-07-08T07:20:09.684Z,7.63
2018-07-08T07:22:38.186Z,5.33
2018-07-08T07:25:06.886Z,6.07
2018-07-08T07:27:35.345Z,15.60
2018-07-08T07:30:03.864Z,8.40
2018-07-08T07:32:32.337Z,5.55
2018-07-08T07:35:00.771Z,7.00
2018-07-08T07:37:29.287Z,12.43
2018-07-08T07:39:57.717Z,5.03
2018-07-08T07:42:26.225Z,6.07
2018-07-08T07:44:54.724Z,6.37
2018-07-08T07:47:23.271Z,4.37
2018-07-08T07:49:51.712Z,6.60
2018-07-08T07:52:20.201Z,7.93
2018-07-08T07:54:48.621Z,5.60
2018-07-08T07:57:17.050Z,4.60
2018-07-08T07:59:45.531Z,8.30
2018-07-08T08:02:14.299Z,7.93
2018-07-08T08:04:43.038Z,7.50
2018-07-08T08:07:11.444Z,6.00
2018-07-08T08:09:40.313Z,7.47
2018-07-08T08:12:08.757Z,7.83
2018-07-08T08:14:37.172Z,9.10
2018-07-08T08:17:05.631Z,6.43
2018-07-08T08:19:34.059Z,11.03
2018-07-08T08:22:02.545Z,9.70
2018-07-08T08:24:31.003Z,6.37
2018-07-08T08:26:59.422Z,6.47
2018-07-08T08:29:28.083Z,5.53
2018-07-08T08:31:56.515Z,7.57
2018-07-08T08:34:57.655Z,6.67
2018-07-08T08:37:28.642Z,9.93
2018-07-08T08:39:57.590Z,3.50
2018-07-08T08:42:26.039Z,10.40
2018-07-08T08:44:55.781Z,4.83
2018-07-08T08:47:24.787Z,7.20
2018-07-08T08:49:53.896Z,4.93
2018-07-08T08:52:22.415Z,5.83
2018-07-08T08:54:50.978Z,5.57
2018-07-08T08:57:19.440Z,8.63
2018-07-08T08:59:47.891Z,10.27
2018-07-08T09:02:16.284Z,5.87
2018-07-08T09:04:45.204Z,5.27
2018-07-08T09:07:14.878Z,5.70
2018-07-08T09:09:43.343Z,13.10
2018-07-08T09:12:12.479Z,5.93
2018-07-08T09:14:41.136Z,8.13
2018-07-08T09:17:09.946Z,7.25
2018-07-08T09:19:38.445Z,8.87
2018-07-08T09:22:07.774Z,7.10
2018-07-08T09:24:36.250Z,14.23
2018-07-08T09:27:05.123Z,6.53
2018-07-08T09:29:33.594Z,5.87
2018-07-08T09:32:02.204Z,6.07
2018-07-08T09:34:31.025Z,5.43
2018-07-08T09:36:59.506Z,5.17
2018-07-08T09:39:28.461Z,6.93
2018-07-08T09:41:56.967Z,5.87
2018-07-08T09:44:25.421Z,6.67
2018-07-08T09:46:53.922Z,6.90
2018-07-08T09:49:22.328Z,5.00
2018-07-08T09:51:50.760Z,9.53
2018-07-08T09:54:19.204Z,10.13
2018-07-08T09:56:47.606Z,6.67
2018-07-08T09:59:16.071Z,9.87
2018-07-08T10:01:46.668Z,6.93
2018-07-08T10:04:17.501Z,5.50
2018-07-08T10:06:46.722Z,13.23
2018-07-08T10:09:16.725Z,10.10
2018-07-08T10:11:45.424Z,6.93
2018-07-08T10:14:15.327Z,5.37
2018-07-08T10:16:44.255Z,5.10
2018-07-08T10:19:13.819Z,6.27
2018-07-08T10:21:42.272Z,7.37
2018-07-08T10:24:11.007Z,8.97
2018-07-08T10:26:39.766Z,7.13
2018-07-08T10:29:08.401Z,6.85
2018-07-08T10:31:52.426Z,3.77
2018-07-08T10:34:21.013Z,4.37
2018-07-08T10:36:49.573Z,23.60
2018-07-08T10:39:18.266Z,5.50
2018-07-08T10:41:46.717Z,3.60
2018-07-08T10:44:15.349Z,3.72
2018-07-08T10:46:44.256Z,15.53
2018-07-08T10:49:12.737Z,5.75
2018-07-08T10:51:41.161Z,6.37
2018-07-08T10:54:09.800Z,5.97
2018-07-08T10:56:38.239Z,4.50
2018-07-08T10:59:06.659Z,17.25
2018-07-08T11:01:35.095Z,5.10
2018-07-08T11:04:03.551Z,6.87
2018-07-08T11:06:31.971Z,5.40
2018-07-08T11:09:00.522Z,5.33
2018-07-08T11:11:28.970Z,4.60
2018-07-08T11:13:57.418Z,3.87
2018-07-08T11:16:25.887Z,3.05
2018-07-08T11:18:54.356Z,4.70
2018-07-08T11:21:22.835Z,4.37
2018-07-08T11:23:51.247Z,6.60
2018-07-08T11:26:19.727Z,3.87
2018-07-08T11:28:48.139Z,3.90
2018-07-08T11:31:16.601Z,4.85
2018-07-08T11:33:45.030Z,3.80
2018-07-08T11:36:13.435Z,9.80
2018-07-08T11:38:41.889Z,5.57
2018-07-08T11:41:10.321Z,3.30
2018-07-08T11:43:38.794Z,4.47
2018-07-08T11:46:07.220Z,3.77
2018-07-08T11:48:35.640Z,3.83
2018-07-08T11:51:04.076Z,4.60
2018-07-08T11:53:32.763Z,5.12
2018-07-08T11:56:01.208Z,4.20
2018-07-08T11:58:29.652Z,4.50
2018-07-08T12:00:58.067Z,4.50
2018-07-08T12:03:27.034Z,3.72
2018-07-08T12:05:55.462Z,3.53
2018-07-08T12:08:23.898Z,6.37
2018-07-08T12:10:52.313Z,2.47
2018-07-08T12:13:20.842Z,2.58
2018-07-08T12:15:49.287Z,3.20
2018-07-08T12:18:17.681Z,5.30
2018-07-08T12:21:16.807Z,3.27
2018-07-08T12:23:45.263Z,5.43
2018-07-08T12:26:13.707Z,3.05
2018-07-08T12:28:42.132Z,1.83
2018-07-08T12:31:10.565Z,3.47
2018-07-08T12:33:39.152Z,2.40
2018-07-08T12:36:08.766Z,3.13
2018-07-08T12:38:37.483Z,2.30
2018-07-08T12:41:06.076Z,2.60
2018-07-08T12:43:34.879Z,2.90
2018-07-08T12:46:03.503Z,2.37
2018-07-08T12:48:32.002Z,6.03
2018-07-08T12:51:00.507Z,3.73
2018-07-08T12:53:29.288Z,1.90
2018-07-08T12:55:57.745Z,3.33
2018-07-08T12:58:26.592Z,3.43
2018-07-08T13:00:55.047Z,2.90
2018-07-08T13:03:23.964Z,7.90
2018-07-08T13:05:52.400Z,3.27
2018-07-08T13:08:21.049Z,6.80
2018-07-08T13:10:49.467Z,9.70
2018-07-08T13:13:17.924Z,3.27
2018-07-08T13:15:46.343Z,4.70
2018-07-08T13:18:14.801Z,4.30
2018-07-08T13:20:43.277Z,3.00
2018-07-08T13:23:11.773Z,5.95
2018-07-08T13:25:40.276Z,3.37
2018-07-08T13:28:08.735Z,3.13
2018-07-08T13:30:37.191Z,2.50
2018-07-08T13:33:06.093Z,3.30
2018-07-08T13:39:07.663Z,3.03
2018-07-08T13:41:36.065Z,2.50
2018-07-08T13:44:04.803Z,4.40
2018-07-08T13:47:35.883Z,4.37
2018-07-08T13:50:04.813Z,4.23
2018-07-08T13:52:33.321Z,4.95
2018-07-08T13:55:01.721Z,2.87
2018-07-08T13:57:30.151Z,3.40
2018-07-08T13:59:58.563Z,5.73
2018-07-08T14:02:27.022Z,3.60
2018-07-08T14:04:55.888Z,9.23
2018-07-08T14:07:24.495Z,3.87
2018-07-08T14:09:52.899Z,4.70
2018-07-08T14:12:21.476Z,3.23
2018-07-08T14:14:49.949Z,6.57
2018-07-08T14:17:18.396Z,3.57
2018-07-08T14:19:46.869Z,5.05
2018-07-08T14:22:15.282Z,3.43
2018-07-08T14:24:43.860Z,5.30
2018-07-08T14:27:12.415Z,10.27
2018-07-08T14:29:40.820Z,4.33
2018-07-08T14:32:09.292Z,4.80
2018-07-08T14:34:37.724Z,3.63
2018-07-08T14:37:06.732Z,4.90
2018-07-08T14:39:35.179Z,3.40
2018-07-08T14:42:03.575Z,5.30
2018-07-08T14:44:32.001Z,5.20
2018-07-08T14:47:00.692Z,6.27
2018-07-08T14:49:30.063Z,7.53
2018-07-08T14:51:58.683Z,4.83
2018-07-08T14:54:27.359Z,7.00
2018-07-08T14:56:56.071Z,3.57
2018-07-08T14:59:24.463Z,3.80
2018-07-08T15:01:52.955Z,6.23
2018-07-08T15:04:21.399Z,3.70
2018-07-08T15:06:50.151Z,11.33
2018-07-08T15:09:18.900Z,7.50
2018-07-08T15:11:47.324Z,6.33
2018-07-08T15:14:15.768Z,3.13
2018-07-08T15:16:44.199Z,6.70
2018-07-08T15:19:12.640Z,4.90
2018-07-08T15:21:41.478Z,4.67
2018-07-08T15:24:09.838Z,3.07
2018-07-08T15:26:38.374Z,3.50
2018-07-08T15:29:06.875Z,4.97
2018-07-08T15:31:36.789Z,7.03
2018-07-08T15:34:05.239Z,7.70
2018-07-08T15:36:34.252Z,7.43
2018-07-08T15:39:02.690Z,4.93
2018-07-08T15:41:31.370Z,4.03
2018-07-08T15:43:59.798Z,3.17
2018-07-08T15:46:28.308Z,3.33
2018-07-08T15:48:57.311Z,2.90
2018-07-08T15:51:25.775Z,3.73
2018-07-08T15:53:54.236Z,4.12
2018-07-08T15:56:22.662Z,3.40
2018-07-08T15:58:51.095Z,6.23
2018-07-08T16:01:19.826Z,3.47
2018-07-08T16:03:48.310Z,3.07
2018-07-08T16:08:59.517Z,4.00
2018-07-08T16:11:29.408Z,3.37
2018-07-08T16:13:58.021Z,3.80
2018-07-08T16:16:26.875Z,9.13
2018-07-08T16:18:55.438Z,3.00
2018-07-08T16:21:23.782Z,3.93
2018-07-08T16:23:52.232Z,5.83
2018-07-08T16:26:20.728Z,7.37
2018-07-08T16:28:49.259Z,3.60
2018-07-08T16:31:17.699Z,3.90
2018-07-08T16:33:46.173Z,8.40
2018-07-08T16:36:14.663Z,3.47
2018-07-08T16:38:43.111Z,3.07
2018-07-08T16:41:11.593Z,2.20
2018-07-08T16:43:40.045Z,3.70
2018-07-08T16:46:08.515Z,3.02
2018-07-08T16:48:36.943Z,2.53
2018-07-08T16:51:05.446Z,3.50
2018-07-08T16:53:33.920Z,2.47
2018-07-08T16:56:02.654Z,1.77
2018-07-08T16:58:31.300Z,8.97
2018-07-08T17:00:59.730Z,3.60
2018-07-08T17:03:28.183Z,4.73
2018-07-08T17:05:56.788Z,3.25
2018-07-08T17:08:25.362Z,4.83
2018-07-08T17:10:53.723Z,3.12
2018-07-08T17:13:22.560Z,3.93
2018-07-08T17:15:51.003Z,3.40
2018-07-08T17:18:19.411Z,2.13
2018-07-08T17:20:48.179Z,2.50
2018-07-08T17:23:16.647Z,2.43
2018-07-08T17:25:45.125Z,2.70
2018-07-08T17:28:13.747Z,3.33
2018-07-08T17:30:42.183Z,3.63
2018-07-08T17:33:10.853Z,2.27
2018-07-08T17:35:39.322Z,3.70
2018-07-08T17:38:07.751Z,3.10
2018-07-08T17:40:36.282Z,3.13
2018-07-08T17:43:05.227Z,4.78
2018-07-08T17:45:33.692Z,4.20
2018-07-08T17:48:02.206Z,4.90
2018-07-08T17:50:30.709Z,2.67
2018-07-08T17:52:59.451Z,6.37
2018-07-08T17:55:27.923Z,12.63
2018-07-08T17:57:56.331Z,5.60
2018-07-08T18:00:25.156Z,4.70
2018-07-08T18:02:53.611Z,3.20
2018-07-08T18:05:22.024Z,2.50
2018-07-08T18:07:50.503Z,2.47
2018-07-08T18:10:19.257Z,3.60
2018-07-08T18:12:47.744Z,4.20
2018-07-08T18:15:16.179Z,4.07
2018-07-08T18:17:44.639Z,4.63
2018-07-08T18:20:13.099Z,3.40
2018-07-08T18:22:41.844Z,3.10
2018-07-08T18:25:10.352Z,2.90
2018-07-08T18:27:38.947Z,9.40
2018-07-08T18:30:07.610Z,2.42
2018-07-08T18:32:36.106Z,2.73
2018-07-08T18:35:04.974Z,7.47
2018-07-08T18:37:33.716Z,3.33
2018-07-08T18:40:02.532Z,3.12
2018-07-08T18:42:31.156Z,1.90
2018-07-08T18:44:59.613Z,6.40
2018-07-08T18:47:28.036Z,6.90
2018-07-08T18:49:56.509Z,3.83
2018-07-08T18:52:24.904Z,3.83
2018-07-08T18:54:53.344Z,2.80
2018-07-08T18:57:21.781Z,1.97
2018-07-08T18:59:50.244Z,9.00
2018-07-08T19:02:18.740Z,20.47
2018-07-08T19:04:47.224Z,2.90
2018-07-08T19:07:15.875Z,6.37
2018-07-08T19:09:44.342Z,5.27
2018-07-08T19:12:12.795Z,2.98
2018-07-08T19:14:41.260Z,4.47
2018-07-08T19:17:09.743Z,1.83
2018-07-08T19:19:38.196Z,6.00
2018-07-08T19:22:06.652Z,6.57
2018-07-08T19:24:35.544Z,2.70
2018-07-08T19:27:03.977Z,6.47
2018-07-08T19:29:32.410Z,3.33
2018-07-08T19:32:00.861Z,2.90
2018-07-08T19:34:29.534Z,3.20
2018-07-08T19:36:58.077Z,5.67
2018-07-08T19:39:26.839Z,5.20
2018-07-08T19:41:55.336Z,3.17
2018-07-08T19:44:23.867Z,4.83
2018-07-08T19:46:52.342Z,3.60
2018-07-08T19:49:21.092Z,4.72
2018-07-08T19:51:50.471Z,15.80
2018-07-08T19:54:18.903Z,10.38
2018-07-08T19:56:47.344Z,11.27
2018-07-08T19:59:15.839Z,12.85
2018-07-08T20:01:44.345Z,12.03
2018-07-08T20:04:12.783Z,6.80
2018-07-08T20:06:41.256Z,4.20
2018-07-08T20:09:09.694Z,4.00
2018-07-08T20:11:38.300Z,3.03
2018-07-08T20:14:06.847Z,4.37
2018-07-08T20:16:35.297Z,7.90
2018-07-08T20:19:03.763Z,6.43
2018-07-08T20:21:32.400Z,4.73
2018-07-08T20:24:01.292Z,4.73
2018-07-08T20:26:29.771Z,11.07
2018-07-08T20:28:58.192Z,6.40
2018-07-08T20:31:26.648Z,5.05
2018-07-08T20:33:55.103Z,4.70
2018-07-08T20:36:23.608Z,5.03
2018-07-08T20:38:52.053Z,7.87
2018-07-08T20:41:20.496Z,6.70
2018-07-08T20:43:49.179Z,5.22
2018-07-08T20:46:17.589Z,6.00
2018-07-08T20:48:46.006Z,6.27
2018-07-08T20:51:14.467Z,5.27
2018-07-08T20:53:42.908Z,16.67
2018-07-08T20:56:11.357Z,8.60
2018-07-08T20:58:39.758Z,3.77
2018-07-08T21:01:08.422Z,2.90
2018-07-08T21:03:37.109Z,3.70
2018-07-08T21:06:05.557Z,13.70
2018-07-08T21:08:34.036Z,6.30
2018-07-08T21:11:02.513Z,3.17
2018-07-08T21:13:30.954Z,6.53
2018-07-08T21:15:59.645Z,6.63
2018-07-08T21:18:28.158Z,4.47
2018-07-08T21:20:56.598Z,3.77
2018-07-08T21:23:25.066Z,5.73
2018-07-08T21:25:53.495Z,5.40
2018-07-08T21:28:21.969Z,3.03
2018-07-08T21:30:50.551Z,3.83
2018-07-08T21:33:19.676Z,6.55
2018-07-08T21:35:48.201Z,3.90
2018-07-08T21:38:16.651Z,5.80
2018-07-08T21:40:45.108Z,6.03
2018-07-08T21:43:13.541Z,10.18
2018-07-08T21:45:41.991Z,3.77
2018-07-08T21:48:10.764Z,5.80
2018-07-08T21:50:39.227Z,4.03
2018-07-08T21:53:07.651Z,4.13
2018-07-08T21:55:36.355Z,12.13
2018-07-08T21:58:05.173Z,3.37
2018-07-08T22:00:34.000Z,6.97
2018-07-08T22:03:02.795Z,6.80
2018-07-08T22:05:32.319Z,6.63
2018-07-08T22:08:04.924Z,5.60
2018-07-08T22:10:34.387Z,5.05
2018-07-08T22:13:03.976Z,4.77
2018-07-08T22:15:32.471Z,5.97
2018-07-08T22:18:00.979Z,4.70
2018-07-08T22:20:29.480Z,5.30
2018-07-08T22:22:57.900Z,3.47
2018-07-08T22:25:26.327Z,5.07
2018-07-08T22:27:54.735Z,6.73
2018-07-08T22:30:23.244Z,7.10
2018-07-08T22:32:51.711Z,6.30
2018-07-08T22:35:20.177Z,7.70
2018-07-08T22:37:48.649Z,7.70
2018-07-08T22:40:17.100Z,6.67
2018-07-08T22:42:45.567Z,5.47
2018-07-08T22:45:14.017Z,5.43
2018-07-08T22:47:42.495Z,7.90
2018-07-08T22:50:10.951Z,6.50
2018-07-08T22:52:39.368Z,5.92
2018-07-08T22:55:07.799Z,4.72
2018-07-08T22:57:36.216Z,4.10
2018-07-08T23:00:16.084Z,3.40
2018-07-08T23:02:46.827Z,4.65
2018-07-08T23:05:15.996Z,6.77
2018-07-08T23:07:44.454Z,4.73
2018-07-08T23:10:13.075Z,6.10
2018-07-08T23:12:41.524Z,7.10
2018-07-08T23:15:09.991Z,8.10
2018-07-08T23:17:38.501Z,7.92
2018-07-08T23:20:06.970Z,11.53
2018-07-08T23:22:46.427Z,10.93
2018-07-08T23:25:14.859Z,7.37
2018-07-08T23:27:43.495Z,7.67
2018-07-08T23:30:11.908Z,5.97
2018-07-08T23:32:40.670Z,5.50
2018-07-08T23:35:09.078Z,6.27
2018-07-08T23:37:37.697Z,9.07
2018-07-08T23:40:06.091Z,3.90
2018-07-08T23:42:35.592Z,4.28
2018-07-08T23:45:04.053Z,4.77
2018-07-08T23:47:32.506Z,5.40
2018-07-08T23:50:00.975Z,6.93
2018-07-08T23:52:29.418Z,7.47
2018-07-08T23:54:57.907Z,12.43
2018-07-08T23:57:26.381Z,10.13
2018-07-08T23:59:54.810Z,6.97
